Time,TemperatureF,DewpointF,PressureIn,WindDirection,WindDirectionDegrees,WindSpeedMPH,WindSpeedGustMPH,Humidity,HourlyPrecipIn,Conditions,Clouds,dailyrainin,SoftwareType,DateUTC
2014-01-11 00:01:00,51.9,45.9,30.12,SSE,153,8.0,11.0,80,0.00,,CLR,0.00,VWS V14.01,2014-01-11 08:01:00,
2014-01-11 00:06:00,52.2,45.9,30.12,SSE,159,6.0,8.0,79,0.00,,CLR,0.00,VWS V14.01,2014-01-11 08:06:00,
2014-01-11 00:11:00,52.3,45.7,30.13,SSE,156,4.0,7.0,78,0.00,,CLR,0.00,VWS V14.01,2014-01-11 08:11:00,
2014-01-11 00:16:00,52.6,46.0,30.12,SE,139,5.0,14.0,78,0.00,,CLR,0.00,VWS V14.01,2014-01-11 08:16:00,
2014-01-11 00:21:00,52.9,45.9,30.12,East,97,9.0,9.0,77,0.00,,CLR,0.00,VWS V14.01,2014-01-11 08:21:00,
2014-01-11 00:26:00,53.2,46.2,30.12,SSE,155,4.0,9.0,77,0.00,,CLR,0.00,VWS V14.01,2014-01-11 08:26:00,
2014-01-11 00:31:00,53.3,46.3,30.12,ESE,119,5.0,9.0,77,0.00,,CLR,0.00,VWS V14.01,2014-01-11 08:31:00,
2014-01-11 00:36:00,53.5,46.1,30.12,SE,126,6.0,8.0,76,0.00,,CLR,0.00,VWS V14.01,2014-01-11 08:36:00,
2014-01-11 00:41:00,53.5,46.1,30.12,SE,135,5.0,8.0,76,0.00,,CLR,0.00,VWS V14.01,2014-01-11 08:41:00,
2014-01-11 00:46:00,53.5,46.1,30.12,ESE,121,5.0,9.0,76,0.00,,CLR,0.00,VWS V14.01,2014-01-11 08:46:00,
2014-01-11 00:51:00,53.6,45.9,30.11,ESE,123,4.0,11.0,75,0.00,,CLR,0.00,VWS V14.01,2014-01-11 08:51:00,
2014-01-11 00:56:00,53.6,45.9,30.11,East,94,8.0,14.0,75,0.00,,CLR,0.00,VWS V14.01,2014-01-11 08:56:00,
2014-01-11 01:01:00,53.6,45.9,30.10,East,93,11.0,12.0,75,0.00,,CLR,0.00,VWS V14.01,2014-01-11 09:01:00,
2014-01-11 01:06:00,53.6,45.9,30.10,SE,124,5.0,9.0,75,0.00,,CLR,0.00,VWS V14.01,2014-01-11 09:06:00,
2014-01-11 01:11:00,53.5,45.8,30.10,SSE,163,5.0,11.0,75,0.00,,CLR,0.00,VWS V14.01,2014-01-11 09:11:00,
2014-01-11 01:16:00,53.5,46.1,30.10,SE,142,11.0,14.0,76,0.00,,CLR,0.00,VWS V14.01,2014-01-11 09:16:00,
2014-01-11 01:21:00,53.5,46.1,30.10,SE,141,11.0,15.0,76,0.00,,CLR,0.00,VWS V14.01,2014-01-11 09:21:00,
2014-01-11 01:26:00,53.5,46.1,30.09,SE,133,8.0,13.0,76,0.00,,CLR,0.00,VWS V14.01,2014-01-11 09:26:00,
2014-01-11 01:31:00,53.4,45.7,30.08,SE,126,15.0,19.0,75,0.00,,,0.00,meteobridge,2014-01-11 09:31:00,
2014-01-11 01:36:00,53.4,45.7,30.09,SSE,148,6.9,19.0,75,0.00,,,0.00,meteobridge,2014-01-11 09:36:00,
2014-01-11 01:41:00,53.5,45.8,30.10,ESE,117,9.0,16.0,75,0.00,,OVC035,0.00,VWS V14.01,2014-01-11 09:41:00,
2014-01-11 01:46:00,53.6,45.5,30.10,SE,138,11.0,19.0,74,0.00,,OVC035,0.00,VWS V14.01,2014-01-11 09:46:00,
2014-01-11 01:51:00,53.8,45.7,30.10,ESE,115,4.0,14.0,74,0.00,,OVC035,0.00,VWS V14.01,2014-01-11 09:51:00,
2014-01-11 01:56:00,53.8,45.7,30.10,SE,135,6.0,10.0,74,0.00,,OVC035,0.00,VWS V14.01,2014-01-11 09:56:00,
2014-01-11 02:01:00,54.0,45.9,30.09,ESE,123,8.9,13.0,74,0.00,,,0.00,meteobridge,2014-01-11 10:01:00,
2014-01-11 02:06:00,54.1,46.0,30.09,SE,140,11.0,11.0,74,0.00,,,0.00,meteobridge,2014-01-11 10:06:00,
2014-01-11 02:11:00,54.1,46.0,30.10,SE,135,8.0,10.0,74,0.00,,OVC035,0.00,VWS V14.01,2014-01-11 10:11:00,
2014-01-11 02:16:00,54.1,46.0,30.09,SE,140,12.1,14.1,74,0.00,,,0.00,meteobridge,2014-01-11 10:16:00,
2014-01-11 02:21:00,54.1,46.4,30.10,SE,130,8.0,11.0,75,0.00,,OVC035,0.00,VWS V14.01,2014-01-11 10:21:00,
2014-01-11 02:26:00,54.1,46.4,30.09,ESE,113,8.9,12.1,75,0.00,,,0.00,meteobridge,2014-01-11 10:26:00,
2014-01-11 02:31:00,54.2,46.5,30.10,SE,132,7.0,10.0,75,0.00,,OVC035,0.00,VWS V14.01,2014-01-11 10:31:00,
2014-01-11 02:36:00,54.2,46.5,30.10,ESE,115,10.0,12.0,75,0.00,,OVC035,0.00,VWS V14.01,2014-01-11 10:36:00,
2014-01-11 02:41:00,54.2,46.1,30.10,SSE,149,10.0,12.0,74,0.00,,OVC033,0.00,VWS V14.01,2014-01-11 10:41:00,
2014-01-11 02:46:00,54.1,46.0,30.09,SE,146,6.0,13.0,74,0.00,,,0.00,meteobridge,2014-01-11 10:46:00,
2014-01-11 02:51:00,54.2,46.5,30.10,SE,134,10.0,11.0,75,0.00,,OVC033,0.00,VWS V14.01,2014-01-11 10:51:00,
2014-01-11 02:56:00,54.1,46.4,30.10,ESE,122,5.0,9.0,75,0.00,,OVC033,0.00,VWS V14.01,2014-01-11 10:56:00,
2014-01-11 03:01:00,54.1,46.7,30.11,SE,130,7.0,8.0,76,0.00,,OVC033,0.00,VWS V14.01,2014-01-11 11:01:00,
2014-01-11 03:06:00,54.1,47.1,30.12,SE,146,2.0,6.0,77,0.00,,OVC033,0.00,VWS V14.01,2014-01-11 11:06:00,
2014-01-11 03:11:00,54.1,47.4,30.12,SE,137,2.0,4.0,78,0.00,,OVC033,0.00,VWS V14.01,2014-01-11 11:11:00,
2014-01-11 03:16:00,54.1,47.5,30.11,SE,137,2.0,2.9,78,0.00,,,0.00,meteobridge,2014-01-11 11:16:00,
2014-01-11 03:21:00,53.9,47.5,30.12,ESE,116,4.0,4.0,79,0.00,,OVC033,0.00,VWS V14.01,2014-01-11 11:21:00,
2014-01-11 03:26:00,53.9,47.9,30.12,ESE,118,8.0,8.0,80,0.00,,OVC033,0.00,VWS V14.01,2014-01-11 11:26:00,
2014-01-11 03:31:00,53.9,47.9,30.12,SE,126,2.0,5.0,80,0.00,,OVC033,0.00,VWS V14.01,2014-01-11 11:31:00,
2014-01-11 03:36:00,53.9,48.2,30.12,ESE,121,7.0,8.0,81,0.00,,OVC033,0.00,VWS V14.01,2014-01-11 11:36:00,
2014-01-11 03:41:00,53.9,48.2,30.13,SE,136,1.0,2.0,81,0.00,,BKN035,0.00,VWS V14.01,2014-01-11 11:41:00,
2014-01-11 03:46:00,54.1,48.7,30.14,South,177,1.0,3.0,82,0.00,,BKN035,0.00,VWS V14.01,2014-01-11 11:46:00,
2014-01-11 03:51:00,54.2,48.8,30.13,SSE,149,1.0,3.0,82,0.00,,BKN035,0.00,VWS V14.01,2014-01-11 11:51:00,
2014-01-11 03:56:00,54.2,48.8,30.12,SE,132,5.0,8.0,82,0.00,,BKN035,0.00,VWS V14.01,2014-01-11 11:56:00,
2014-01-11 04:01:00,54.2,49.2,30.12,SSE,163,6.0,10.0,83,0.00,,BKN035,0.00,VWS V14.01,2014-01-11 12:01:00,
2014-01-11 04:06:00,54.5,49.1,30.11,SE,132,7.0,12.0,82,0.00,,BKN035,0.00,VWS V14.01,2014-01-11 12:06:00,
2014-01-11 04:11:00,54.5,49.1,30.11,SSE,147,8.0,10.0,82,0.00,,BKN035,0.00,VWS V14.01,2014-01-11 12:11:00,
2014-01-11 04:16:00,54.7,49.3,30.10,ESE,120,8.0,12.0,82,0.00,,BKN035,0.00,VWS V14.01,2014-01-11 12:16:00,
2014-01-11 04:21:00,54.7,49.0,30.10,SE,125,4.0,11.0,81,0.00,,BKN035,0.00,VWS V14.01,2014-01-11 12:21:00,
2014-01-11 04:26:00,54.7,49.0,30.09,SE,138,10.0,14.0,81,0.00,,BKN035,0.00,VWS V14.01,2014-01-11 12:26:00,
2014-01-11 04:31:00,54.7,49.0,30.09,SE,144,11.0,17.0,81,0.00,,BKN035,0.00,VWS V14.01,2014-01-11 12:31:00,
2014-01-11 04:36:00,54.5,48.8,30.09,SE,132,12.0,15.0,81,0.00,,BKN035,0.00,VWS V14.01,2014-01-11 12:36:00,
2014-01-11 04:41:00,54.5,49.1,30.08,SE,134,13.0,16.0,82,0.00,,OVC034,0.00,VWS V14.01,2014-01-11 12:41:00,
2014-01-11 04:46:00,54.5,49.1,30.08,SSE,162,5.0,17.0,82,0.00,,OVC034,0.00,VWS V14.01,2014-01-11 12:46:00,
2014-01-11 04:51:00,54.5,49.1,30.07,SE,146,11.0,16.1,82,0.00,,,0.00,meteobridge,2014-01-11 12:51:00,
2014-01-11 04:56:00,54.5,49.1,30.07,ESE,120,9.0,15.0,82,0.00,,OVC034,0.00,VWS V14.01,2014-01-11 12:56:00,
2014-01-11 05:01:00,54.5,49.1,30.06,SE,136,7.0,11.0,82,0.00,,OVC034,0.00,VWS V14.01,2014-01-11 13:01:00,
2014-01-11 05:06:00,54.7,49.0,30.06,SE,138,8.0,15.0,81,0.00,,OVC034,0.00,VWS V14.01,2014-01-11 13:06:00,
2014-01-11 05:11:00,54.7,49.0,30.06,SE,145,9.0,15.0,81,0.00,,OVC034,0.00,VWS V14.01,2014-01-11 13:11:00,
2014-01-11 05:16:00,54.7,48.9,30.05,South,181,6.9,16.1,81,0.00,,,0.00,meteobridge,2014-01-11 13:16:00,
2014-01-11 05:21:00,54.7,49.0,30.06,SE,126,8.0,14.0,81,0.00,,OVC034,0.00,VWS V14.01,2014-01-11 13:21:00,
2014-01-11 05:26:00,54.5,49.1,30.07,SE,134,11.0,13.0,82,0.00,,OVC034,0.00,VWS V14.01,2014-01-11 13:26:00,
2014-01-11 05:31:00,54.5,49.5,30.06,SE,131,10.1,14.1,83,0.01,,,0.01,meteobridge,2014-01-11 13:31:00,
2014-01-11 05:36:00,54.2,49.5,30.08,SSE,150,7.0,7.0,84,0.03,,OVC034,0.03,VWS V14.01,2014-01-11 13:36:00,
2014-01-11 05:41:00,53.8,49.4,30.09,South,169,4.0,9.0,85,0.05,, +RA,0.05,VWS V14.01,2014-01-11 13:41:00,
2014-01-11 05:46:00,53.5,49.4,30.09,SE,133,5.0,6.0,86,0.07,, +RA,0.07,VWS V14.01,2014-01-11 13:46:00,
2014-01-11 05:51:00,53.3,49.5,30.09,SE,134,2.0,5.0,87,0.08,, +RA,0.08,VWS V14.01,2014-01-11 13:51:00,
2014-01-11 05:56:00,53.1,49.7,30.10,ESE,121,7.0,9.0,88,0.09,, +RA,0.09,VWS V14.01,2014-01-11 13:56:00,
2014-01-11 06:01:00,52.9,49.8,30.10,ESE,115,3.0,9.0,89,0.11,,RA,0.11,VWS V14.01,2014-01-11 14:01:00,
2014-01-11 06:06:00,52.8,49.7,30.10,SE,126,5.0,7.0,89,0.14,,RA,0.14,VWS V14.01,2014-01-11 14:06:00,
2014-01-11 06:11:00,52.6,49.8,30.09,ESE,113,9.0,12.0,90,0.18,,RA,0.18,VWS V14.01,2014-01-11 14:11:00,
2014-01-11 06:16:00,52.3,49.8,30.08,SE,126,12.0,16.0,91,0.20,,RA,0.20,VWS V14.01,2014-01-11 14:16:00,
2014-01-11 06:21:00,52.2,49.7,30.06,SE,130,8.0,14.0,91,0.23,,RA,0.23,VWS V14.01,2014-01-11 14:21:00,
2014-01-11 06:26:00,52.0,49.8,30.04,SE,129,11.0,15.0,92,0.24,,RA,0.24,VWS V14.01,2014-01-11 14:26:00,
2014-01-11 06:31:00,51.9,49.7,30.04,SE,146,10.0,13.0,92,0.26,,RA,0.26,VWS V14.01,2014-01-11 14:31:00,
2014-01-11 06:36:00,51.9,49.9,30.04,SE,128,13.0,17.0,93,0.23,,RA,0.26,VWS V14.01,2014-01-11 14:36:00,
2014-01-11 06:41:00,51.7,49.8,30.04,SE,127,15.0,17.0,93,0.23,,-RA,0.27,VWS V14.01,2014-01-11 14:41:00,
2014-01-11 06:46:00,51.6,49.6,30.03,SE,135,14.1,21.9,93,0.20,,,0.27,meteobridge,2014-01-11 14:46:00,
2014-01-11 06:51:00,51.7,49.8,30.05,ESE,121,17.0,17.0,93,0.19,,-RA,0.27,VWS V14.01,2014-01-11 14:51:00,
2014-01-11 06:56:00,51.7,49.8,30.06,ESE,105,13.0,22.0,93,0.18,,-RA,0.27,VWS V14.01,2014-01-11 14:56:00,
2014-01-11 07:01:00,51.6,49.6,30.04,ESE,122,14.1,19.0,93,0.16,,,0.27,meteobridge,2014-01-11 15:01:00,
2014-01-11 07:06:00,51.6,49.6,30.05,SE,126,8.9,16.1,93,0.14,,,0.28,meteobridge,2014-01-11 15:06:00,
2014-01-11 07:11:00,51.6,49.7,30.06,SSE,155,9.0,11.0,93,0.11,,-RA,0.28,VWS V14.01,2014-01-11 15:11:00,
2014-01-11 07:16:00,51.6,49.7,30.06,SE,130,12.0,12.0,93,0.08,,-RA,0.28,VWS V14.01,2014-01-11 15:16:00,
2014-01-11 07:21:00,51.6,49.7,30.07,ESE,109,5.0,9.0,93,0.06,,-RA,0.29,VWS V14.01,2014-01-11 15:21:00,
2014-01-11 07:26:00,51.6,49.9,30.07,ESE,119,10.0,13.0,94,0.06,,-RA,0.30,VWS V14.01,2014-01-11 15:26:00,
2014-01-11 07:31:00,51.6,49.9,30.07,ESE,119,7.0,17.0,94,0.04,,-RA,0.30,VWS V14.01,2014-01-11 15:31:00,
2014-01-11 07:36:00,51.6,49.9,30.07,ESE,107,9.0,12.0,94,0.05,,-RA,0.31,VWS V14.01,2014-01-11 15:36:00,
2014-01-11 07:41:00,51.6,49.9,30.07,ESE,113,8.0,10.0,94,0.06,,-RA,0.32,VWS V14.01,2014-01-11 15:41:00,
2014-01-11 07:46:00,51.4,49.7,30.07,ESE,105,9.0,11.0,94,0.05,,-RA,0.32,VWS V14.01,2014-01-11 15:46:00,
2014-01-11 07:51:00,51.4,49.7,30.07,East,95,8.0,14.0,94,0.06,,-RA,0.33,VWS V14.01,2014-01-11 15:51:00,
2014-01-11 07:56:00,51.4,49.8,30.06,East,94,6.0,15.0,94,0.06,,,0.33,meteobridge,2014-01-11 15:56:00,
2014-01-11 08:01:00,51.4,49.8,30.07,SE,132,10.1,14.1,94,0.06,,,0.34,meteobridge,2014-01-11 16:01:00,
2014-01-11 08:06:00,51.4,49.7,30.08,ESE,103,2.0,11.0,94,0.07,,-RA,0.35,VWS V14.01,2014-01-11 16:06:00,
2014-01-11 08:11:00,51.4,49.7,30.08,SE,130,12.0,12.0,94,0.07,,-RA,0.35,VWS V14.01,2014-01-11 16:11:00,
2014-01-11 08:16:00,51.4,49.7,30.09,SE,130,6.0,12.0,94,0.08,,-RA,0.36,VWS V14.01,2014-01-11 16:16:00,
2014-01-11 08:21:00,51.4,49.7,30.10,East,96,9.0,11.0,94,0.07,,-RA,0.36,VWS V14.01,2014-01-11 16:21:00,
2014-01-11 08:26:00,51.6,50.2,30.09,SE,142,2.9,8.9,95,0.08,,,0.38,meteobridge,2014-01-11 16:26:00,
2014-01-11 08:31:00,51.6,50.2,30.11,ESE,105,2.0,2.0,95,0.08,,-RA,0.38,VWS V14.01,2014-01-11 16:31:00,
2014-01-11 08:36:00,51.7,50.3,30.12,NNW,335,1.0,5.0,95,0.08,,-RA,0.39,VWS V14.01,2014-01-11 16:36:00,
2014-01-11 08:41:00,51.6,50.2,30.13,NW,324,0.0,0.0,95,0.12,,-RA,0.44,VWS V14.01,2014-01-11 16:41:00,
2014-01-11 08:46:00,51.6,50.2,30.13,NW,324,0.0,0.0,95,0.14,,-RA,0.46,VWS V14.01,2014-01-11 16:46:00,
2014-01-11 08:51:00,51.7,50.3,30.13,NW,324,0.0,0.0,95,0.14,,-RA,0.46,VWS V14.01,2014-01-11 16:51:00,
2014-01-11 08:56:00,51.7,50.3,30.13,NW,324,0.0,0.0,95,0.14,,-RA,0.47,VWS V14.01,2014-01-11 16:56:00,
2014-01-11 09:01:00,51.7,50.3,30.13,North,355,0.0,0.0,95,0.13,,-RA,0.47,VWS V14.01,2014-01-11 17:01:00,
2014-01-11 09:06:00,51.7,50.3,30.14,North,355,0.0,0.0,95,0.13,,-RA,0.47,VWS V14.01,2014-01-11 17:06:00,
2014-01-11 09:11:00,51.9,50.5,30.14,North,355,0.0,0.0,95,0.12,,-RA,0.47,VWS V14.01,2014-01-11 17:11:00,
2014-01-11 09:16:00,51.9,50.5,30.15,North,355,0.0,0.0,95,0.11,,-RA,0.47,VWS V14.01,2014-01-11 17:16:00,
2014-01-11 09:21:00,52.0,50.9,30.15,North,355,0.0,0.0,96,0.11,,-RA,0.47,VWS V14.01,2014-01-11 17:21:00,
2014-01-11 09:26:00,52.2,51.1,30.16,North,355,0.0,0.0,96,0.10,,-RA,0.47,VWS V14.01,2014-01-11 17:26:00,
2014-01-11 09:31:00,52.2,51.1,30.16,North,355,0.0,0.0,96,0.09,,-RA,0.47,VWS V14.01,2014-01-11 17:31:00,
2014-01-11 09:36:00,52.2,51.1,30.15,North,355,0.0,0.0,96,0.08,,,0.47,meteobridge,2014-01-11 17:36:00,
2014-01-11 09:41:00,52.3,51.2,30.17,North,355,0.0,0.0,96,0.06,,OVC095,0.48,VWS V14.01,2014-01-11 17:41:00,
2014-01-11 09:46:00,52.5,51.4,30.17,North,355,0.0,0.0,96,0.02,,OVC095,0.48,VWS V14.01,2014-01-11 17:46:00,
2014-01-11 09:51:00,52.6,51.5,30.17,North,355,0.0,0.0,96,0.02,,OVC095,0.48,VWS V14.01,2014-01-11 17:51:00,
2014-01-11 09:56:00,52.6,51.5,30.17,North,355,0.0,0.0,96,0.01,,OVC095,0.48,VWS V14.01,2014-01-11 17:56:00,
2014-01-11 10:01:00,52.5,51.4,30.17,North,355,0.0,0.0,96,0.01,,OVC095,0.48,VWS V14.01,2014-01-11 18:01:00,
2014-01-11 10:06:00,52.5,51.4,30.18,North,355,0.0,0.0,96,0.01,,OVC095,0.48,VWS V14.01,2014-01-11 18:06:00,
2014-01-11 10:11:00,52.8,51.7,30.18,North,355,0.0,0.0,96,0.01,,OVC095,0.48,VWS V14.01,2014-01-11 18:11:00,
2014-01-11 10:16:00,52.9,51.8,30.18,North,355,0.0,0.0,96,0.01,,OVC095,0.48,VWS V14.01,2014-01-11 18:16:00,
2014-01-11 10:21:00,52.9,51.8,30.18,North,355,0.0,0.0,96,0.01,,OVC095,0.48,VWS V14.01,2014-01-11 18:21:00,
2014-01-11 10:26:00,52.9,51.8,30.18,North,355,0.0,0.0,96,0.01,,OVC095,0.48,VWS V14.01,2014-01-11 18:26:00,
2014-01-11 10:31:00,53.3,52.2,30.18,North,355,0.0,0.0,96,0.01,,OVC095,0.48,VWS V14.01,2014-01-11 18:31:00,
2014-01-11 10:36:00,53.6,52.5,30.18,North,355,0.0,0.0,96,0.01,,OVC095,0.48,VWS V14.01,2014-01-11 18:36:00,
2014-01-11 10:41:00,54.1,53.1,30.17,WNW,294,0.0,0.0,96,0.00,,,0.47,meteobridge,2014-01-11 18:41:00,
2014-01-11 10:46:00,54.2,53.1,30.18,WNW,294,0.0,2.0,96,0.00,,OVC020,0.48,VWS V14.01,2014-01-11 18:46:00,
2014-01-11 10:51:00,54.4,53.3,30.18,WNW,294,2.0,2.0,96,0.00,,OVC020,0.48,VWS V14.01,2014-01-11 18:51:00,
2014-01-11 10:56:00,54.3,52.9,30.17,WNW,294,2.0,2.0,95,0.00,,,0.47,meteobridge,2014-01-11 18:56:00,
2014-01-11 11:01:00,54.5,53.1,30.18,SW,233,0.0,4.0,95,0.00,,OVC020,0.48,VWS V14.01,2014-01-11 19:01:00,
2014-01-11 11:06:00,54.5,52.9,30.17,WNW,283,2.0,2.9,94,0.00,,,0.47,meteobridge,2014-01-11 19:06:00,
2014-01-11 11:11:00,54.4,52.4,30.18,WNW,290,0.0,4.0,93,0.00,,OVC020,0.48,VWS V14.01,2014-01-11 19:11:00,
2014-01-11 11:16:00,54.5,52.2,30.18,West,276,0.0,4.0,92,0.00,,OVC020,0.48,VWS V14.01,2014-01-11 19:16:00,
2014-01-11 11:21:00,55.0,52.7,30.17,South,175,1.0,4.0,92,0.00,,OVC020,0.48,VWS V14.01,2014-01-11 19:21:00,
2014-01-11 11:26:00,55.9,53.6,30.17,South,189,0.0,0.0,92,0.00,,OVC020,0.48,VWS V14.01,2014-01-11 19:26:00,
2014-01-11 11:31:00,56.2,53.3,30.16,South,189,0.0,0.0,90,0.00,,OVC020,0.48,VWS V14.01,2014-01-11 19:31:00,
2014-01-11 11:36:00,56.5,53.0,30.16,WSW,251,0.0,3.0,88,0.00,,OVC020,0.48,VWS V14.01,2014-01-11 19:36:00,
2014-01-11 11:41:00,56.7,52.9,30.16,WSW,237,0.0,4.0,87,0.00,,,0.47,meteobridge,2014-01-11 19:41:00,
2014-01-11 11:46:00,57.3,53.2,30.17,SSW,192,0.0,1.0,86,0.00,,OVC035,0.48,VWS V14.01,2014-01-11 19:46:00,
2014-01-11 11:51:00,57.8,53.3,30.17,SW,225,0.0,0.0,85,0.00,,OVC035,0.48,VWS V14.01,2014-01-11 19:51:00,
2014-01-11 11:56:00,58.1,53.0,30.16,South,173,0.0,0.0,83,0.00,,OVC035,0.48,VWS V14.01,2014-01-11 19:56:00,
2014-01-11 12:01:00,58.3,52.8,30.16,South,182,0.0,0.0,82,0.00,,OVC090,0.48,VWS V14.01,2014-01-11 20:01:00,
2014-01-11 12:06:00,58.1,52.0,30.16,South,182,0.0,0.0,80,0.00,,OVC090,0.48,VWS V14.01,2014-01-11 20:06:00,
2014-01-11 12:08:00,57.9,51.8,30.14,SSE,162,0.0,8.1,80,0.00,,,0.47,meteobridge,2014-01-11 20:08:00,
2014-01-11 12:13:00,57.8,51.3,30.15,SW,217,0.0,4.0,79,0.00,,OVC090,0.48,VWS V14.01,2014-01-11 20:13:00,
2014-01-11 12:18:00,57.6,50.8,30.15,SSW,199,3.0,5.0,78,0.00,,OVC090,0.48,VWS V14.01,2014-01-11 20:18:00,
2014-01-11 12:23:00,57.3,50.2,30.15,WSW,240,0.0,0.0,77,0.00,,OVC090,0.48,VWS V14.01,2014-01-11 20:23:00,
2014-01-11 12:28:00,57.6,50.5,30.14,South,184,0.0,3.0,77,0.00,,OVC090,0.48,VWS V14.01,2014-01-11 20:28:00,
2014-01-11 12:33:00,57.9,50.7,30.13,SSW,211,2.0,6.0,77,0.00,,,0.47,meteobridge,2014-01-11 20:33:00,
2014-01-11 12:38:00,58.0,50.1,30.14,SW,229,0.0,2.0,75,0.00,,OVC090,0.48,VWS V14.01,2014-01-11 20:38:00,
2014-01-11 12:43:00,58.0,49.8,30.14,SW,228,0.0,0.0,74,0.00,,OVC090,0.48,VWS V14.01,2014-01-11 20:43:00,
2014-01-11 12:48:00,58.4,50.9,30.14,SW,228,0.0,0.0,76,0.00,,OVC090,0.48,VWS V14.01,2014-01-11 20:48:00,
2014-01-11 12:53:00,58.6,50.3,30.14,WSW,245,0.0,0.0,74,0.00,,OVC090,0.48,VWS V14.01,2014-01-11 20:53:00,
2014-01-11 12:58:00,58.6,49.2,30.14,WSW,239,0.0,3.0,71,0.00,,OVC090,0.48,VWS V14.01,2014-01-11 20:58:00,
2014-01-11 13:03:00,58.3,49.0,30.14,WSW,239,0.0,0.0,71,0.00,,OVC090,0.48,VWS V14.01,2014-01-11 21:03:00,
2014-01-11 13:08:00,58.3,49.0,30.14,SW,215,0.0,0.0,71,0.00,,OVC090,0.48,VWS V14.01,2014-01-11 21:08:00,
2014-01-11 13:13:00,58.0,48.7,30.14,West,268,5.0,10.0,71,0.00,,OVC090,0.48,VWS V14.01,2014-01-11 21:13:00,
2014-01-11 13:18:00,57.5,47.8,30.14,WSW,247,0.0,3.0,70,0.00,,OVC090,0.48,VWS V14.01,2014-01-11 21:18:00,
2014-01-11 13:23:00,57.3,48.0,30.14,SSW,211,1.0,4.0,71,0.00,,OVC090,0.48,VWS V14.01,2014-01-11 21:23:00,
2014-01-11 13:28:00,57.3,48.0,30.14,SW,234,3.0,6.0,71,0.00,,OVC090,0.48,VWS V14.01,2014-01-11 21:28:00,
2014-01-11 13:33:00,57.2,48.3,30.13,South,190,2.0,2.0,72,0.00,,OVC090,0.48,VWS V14.01,2014-01-11 21:33:00,
2014-01-11 13:34:00,57.2,48.2,30.12,SW,222,6.0,6.9,72,0.00,,,0.47,meteobridge,2014-01-11 21:34:00,
2014-01-11 13:39:00,57.0,47.7,30.13,SW,219,2.0,10.0,71,0.00,,OVC090,0.48,VWS V14.01,2014-01-11 21:39:00,
2014-01-11 13:44:00,57.0,47.7,30.13,SSW,211,0.0,2.0,71,0.00,,,0.48,VWS V14.01,2014-01-11 21:44:00,
2014-01-11 13:49:00,57.2,48.3,30.13,SW,228,4.0,9.0,72,0.00,,,0.48,VWS V14.01,2014-01-11 21:49:00,
2014-01-11 13:54:00,57.2,48.6,30.13,SSW,192,1.0,3.0,73,0.00,,,0.48,VWS V14.01,2014-01-11 21:54:00,
2014-01-11 13:59:00,57.2,48.3,30.14,SSW,197,0.0,5.0,72,0.00,,,0.48,VWS V14.01,2014-01-11 21:59:00,
2014-01-11 14:04:00,57.0,48.1,30.14,WSW,246,2.0,2.0,72,0.00,,,0.48,VWS V14.01,2014-01-11 22:04:00,
2014-01-11 14:09:00,56.7,47.8,30.14,SSW,207,0.0,4.0,72,0.00,,,0.48,VWS V14.01,2014-01-11 22:09:00,
2014-01-11 14:14:00,56.5,48.0,30.14,SW,226,4.0,7.0,73,0.00,,,0.48,VWS V14.01,2014-01-11 22:14:00,
2014-01-11 14:19:00,56.2,48.0,30.14,SW,218,4.0,12.0,74,0.00,,,0.48,VWS V14.01,2014-01-11 22:19:00,
2014-01-11 14:24:00,55.7,48.3,30.14,SSW,192,4.0,6.0,76,0.00,,,0.48,VWS V14.01,2014-01-11 22:24:00,
2014-01-11 14:29:00,55.4,48.3,30.14,SW,224,1.0,1.0,77,0.00,,,0.48,VWS V14.01,2014-01-11 22:29:00,
2014-01-11 14:34:00,55.3,48.6,30.14,South,182,0.0,0.0,78,0.00,,,0.48,VWS V14.01,2014-01-11 22:34:00,
2014-01-11 14:39:00,55.4,49.0,30.14,South,184,0.0,0.0,79,0.00,,,0.48,VWS V14.01,2014-01-11 22:39:00,
2014-01-11 14:44:00,55.4,49.0,30.14,South,187,0.0,5.0,79,0.00,, +RA,0.48,VWS V14.01,2014-01-11 22:44:00,
2014-01-11 14:49:00,55.4,49.0,30.14,SSW,204,2.0,10.0,79,0.00,, +RA,0.48,VWS V14.01,2014-01-11 22:49:00,
2014-01-11 14:54:00,55.4,49.3,30.14,SW,214,0.0,2.0,80,0.00,, +RA,0.48,VWS V14.01,2014-01-11 22:54:00,
2014-01-11 14:59:00,55.6,49.9,30.14,SW,221,0.0,0.0,81,0.00,, +RA,0.48,VWS V14.01,2014-01-11 22:59:00,
2014-01-11 15:04:00,55.4,49.7,30.14,SW,232,0.0,0.0,81,0.00,, +RA,0.48,VWS V14.01,2014-01-11 23:04:00,
2014-01-11 15:09:00,55.4,49.7,30.14,WSW,244,0.0,0.0,81,0.00,, +RA,0.48,VWS V14.01,2014-01-11 23:09:00,
2014-01-11 15:14:00,55.6,49.9,30.14,West,275,0.0,3.0,81,0.00,, +RA,0.48,VWS V14.01,2014-01-11 23:14:00,
2014-01-11 15:19:00,55.3,49.2,30.14,SW,224,0.0,7.0,80,0.00,, +RA,0.48,VWS V14.01,2014-01-11 23:19:00,
2014-01-11 15:24:00,55.1,49.4,30.15,WNW,288,8.0,13.0,81,0.00,, +RA,0.48,VWS V14.01,2014-01-11 23:24:00,
2014-01-11 15:29:00,55.0,49.6,30.15,South,188,0.0,1.0,82,0.01,, +RA,0.49,VWS V14.01,2014-01-11 23:29:00,
2014-01-11 15:34:00,54.7,49.7,30.15,South,190,0.0,2.0,83,0.01,, +RA,0.49,VWS V14.01,2014-01-11 23:34:00,
2014-01-11 15:39:00,54.5,49.5,30.15,SW,216,7.0,7.0,83,0.01,, +RA,0.49,VWS V14.01,2014-01-11 23:39:00,
2014-01-11 15:44:00,54.5,49.1,30.16,WSW,254,0.0,6.0,82,0.01,,OVC075,0.49,VWS V14.01,2014-01-11 23:44:00,
2014-01-11 15:49:00,54.4,49.0,30.16,SSW,197,0.0,0.0,82,0.01,,OVC075,0.49,VWS V14.01,2014-01-11 23:49:00,
2014-01-11 15:54:00,54.5,48.8,30.16,ENE,59,0.0,3.0,81,0.01,,OVC075,0.49,VWS V14.01,2014-01-11 23:54:00,
2014-01-11 15:59:00,54.5,48.8,30.16,South,171,4.0,4.0,81,0.01,,OVC075,0.49,VWS V14.01,2014-01-11 23:59:00,
2014-01-11 16:04:00,54.5,48.5,30.16,North,360,0.0,4.0,80,0.01,,OVC075,0.49,VWS V14.01,2014-01-12 00:04:00,
2014-01-11 16:09:00,54.5,48.5,30.16,West,261,0.0,6.0,80,0.01,,OVC075,0.49,VWS V14.01,2014-01-12 00:09:00,
2014-01-11 16:14:00,54.5,48.5,30.16,NNW,340,0.0,0.0,80,0.01,,OVC075,0.49,VWS V14.01,2014-01-12 00:14:00,
2014-01-11 16:19:00,54.5,48.5,30.16,WNW,295,1.0,2.0,80,0.01,,OVC075,0.49,VWS V14.01,2014-01-12 00:19:00,
2014-01-11 16:24:00,54.4,48.4,30.17,WSW,254,4.0,7.0,80,0.01,,OVC075,0.49,VWS V14.01,2014-01-12 00:24:00,
2014-01-11 16:29:00,54.2,48.2,30.17,SE,134,0.0,0.0,80,0.00,,OVC075,0.49,VWS V14.01,2014-01-12 00:29:00,
2014-01-11 16:34:00,54.1,48.0,30.16,WNW,286,0.0,4.0,80,0.00,,,0.48,meteobridge,2014-01-12 00:34:00,
2014-01-11 16:39:00,54.2,48.5,30.17,West,279,0.0,0.0,81,0.00,,OVC075,0.49,VWS V14.01,2014-01-12 00:39:00,
2014-01-11 16:44:00,54.1,48.4,30.17,West,278,4.0,4.0,81,0.00,,OVC021,0.49,VWS V14.01,2014-01-12 00:44:00,
2014-01-11 16:49:00,53.9,48.5,30.17,West,280,0.0,0.0,82,0.00,,OVC021,0.49,VWS V14.01,2014-01-12 00:49:00,
2014-01-11 16:54:00,53.8,48.4,30.16,West,280,0.0,0.0,82,0.00,,,0.48,meteobridge,2014-01-12 00:54:00,
2014-01-11 16:59:00,53.6,48.2,30.17,West,280,0.0,0.0,82,0.00,,OVC021,0.49,VWS V14.01,2014-01-12 00:59:00,
2014-01-11 17:04:00,53.5,48.5,30.18,West,280,0.0,0.0,83,0.00,,OVC021,0.49,VWS V14.01,2014-01-12 01:04:00,
2014-01-11 17:09:00,53.3,48.3,30.18,West,281,0.0,0.0,83,0.00,,OVC021,0.49,VWS V14.01,2014-01-12 01:09:00,
2014-01-11 17:14:00,53.2,48.2,30.18,West,281,0.0,0.0,83,0.00,,OVC021,0.49,VWS V14.01,2014-01-12 01:14:00,
2014-01-11 17:19:00,53.1,48.4,30.18,WNW,284,0.0,0.0,84,0.00,,OVC021,0.49,VWS V14.01,2014-01-12 01:19:00,
2014-01-11 17:24:00,52.9,48.2,30.18,WNW,284,0.0,0.0,84,0.00,,OVC021,0.49,VWS V14.01,2014-01-12 01:24:00,
2014-01-11 17:29:00,52.9,48.2,30.18,WNW,284,0.0,0.0,84,0.00,,OVC021,0.49,VWS V14.01,2014-01-12 01:29:00,
2014-01-11 17:34:00,52.8,48.1,30.18,WNW,284,0.0,0.0,84,0.00,,OVC021,0.49,VWS V14.01,2014-01-12 01:34:00,
2014-01-11 17:39:00,52.8,48.4,30.18,WNW,284,0.0,1.0,85,0.00,,OVC021,0.49,VWS V14.01,2014-01-12 01:39:00,
2014-01-11 17:44:00,52.8,48.4,30.19,WNW,284,0.0,0.0,85,0.00,,,0.49,VWS V14.01,2014-01-12 01:44:00,
2014-01-11 17:49:00,52.8,48.4,30.19,WNW,284,0.0,0.0,85,0.00,,,0.49,VWS V14.01,2014-01-12 01:49:00,
2014-01-11 17:54:00,52.5,48.4,30.18,WNW,284,0.9,0.9,86,0.00,,,0.48,meteobridge,2014-01-12 01:54:00,
2014-01-11 17:59:00,52.5,48.4,30.19,NW,323,0.0,0.0,86,0.00,,,0.48,meteobridge,2014-01-12 01:59:00,
2014-01-11 18:04:00,52.6,48.5,30.20,NW,312,0.0,5.0,86,0.00,,,0.49,VWS V14.01,2014-01-12 02:04:00,
2014-01-11 18:09:00,52.5,48.4,30.20,NW,311,0.0,0.0,86,0.00,,,0.49,VWS V14.01,2014-01-12 02:09:00,
2014-01-11 18:14:00,52.3,48.2,30.20,NW,311,0.0,0.0,86,0.00,,,0.49,VWS V14.01,2014-01-12 02:14:00,
2014-01-11 18:19:00,52.2,48.2,30.21,NNW,327,0.0,0.0,86,0.00,,,0.49,VWS V14.01,2014-01-12 02:19:00,
2014-01-11 18:24:00,52.0,48.0,30.21,NNW,329,0.0,3.0,86,0.00,,,0.49,VWS V14.01,2014-01-12 02:24:00,
2014-01-11 18:29:00,52.0,47.7,30.20,WNW,294,0.0,0.9,85,0.00,,,0.48,meteobridge,2014-01-12 02:29:00,
2014-01-11 18:34:00,51.9,47.5,30.22,WNW,302,0.0,0.0,85,0.00,,,0.49,VWS V14.01,2014-01-12 02:34:00,
2014-01-11 18:39:00,51.9,47.5,30.22,NNW,333,0.0,0.0,85,0.00,,,0.49,VWS V14.01,2014-01-12 02:39:00,
2014-01-11 18:44:00,51.9,47.5,30.23,NW,325,0.0,1.0,85,0.00,,,0.49,VWS V14.01,2014-01-12 02:44:00,
2014-01-11 18:49:00,51.7,47.0,30.23,NW,317,0.0,0.0,84,0.00,,,0.49,VWS V14.01,2014-01-12 02:49:00,
2014-01-11 18:54:00,51.7,47.0,30.23,NW,317,0.0,0.0,84,0.00,,,0.49,VWS V14.01,2014-01-12 02:54:00,
2014-01-11 18:59:00,51.4,46.7,30.23,NW,317,0.0,0.0,84,0.00,,,0.49,VWS V14.01,2014-01-12 02:59:00,
2014-01-11 19:04:00,51.3,47.0,30.24,NW,317,0.0,0.0,85,0.00,,,0.49,VWS V14.01,2014-01-12 03:04:00,
2014-01-11 19:09:00,51.1,46.8,30.24,NW,317,0.0,0.0,85,0.00,,,0.49,VWS V14.01,2014-01-12 03:09:00,
2014-01-11 19:14:00,51.0,46.7,30.24,NW,317,0.0,0.0,85,0.00,,,0.49,VWS V14.01,2014-01-12 03:14:00,
2014-01-11 19:19:00,50.7,46.7,30.24,NW,316,0.0,0.0,86,0.00,,,0.49,VWS V14.01,2014-01-12 03:19:00,
2014-01-11 19:24:00,50.5,46.5,30.24,NW,317,0.0,0.0,86,0.00,,,0.49,VWS V14.01,2014-01-12 03:24:00,
2014-01-11 19:29:00,50.2,46.2,30.24,NW,317,0.0,0.0,86,0.00,,,0.49,VWS V14.01,2014-01-12 03:29:00,
2014-01-11 19:34:00,49.9,45.9,30.25,NW,317,0.0,0.0,86,0.00,,,0.49,VWS V14.01,2014-01-12 03:34:00,
2014-01-11 19:39:00,49.6,45.9,30.25,NW,317,0.0,0.0,87,0.00,,,0.49,VWS V14.01,2014-01-12 03:39:00,
2014-01-11 19:44:00,49.3,45.5,30.24,NW,316,0.0,0.0,87,0.00,,,0.48,meteobridge,2014-01-12 03:44:00,
2014-01-11 19:49:00,48.9,45.2,30.25,NW,317,0.0,0.0,87,0.00,,,0.49,VWS V14.01,2014-01-12 03:49:00,
2014-01-11 19:54:00,48.7,45.0,30.25,NW,317,0.0,0.0,87,0.00,,,0.48,meteobridge,2014-01-12 03:54:00,
2014-01-11 19:59:00,48.5,44.8,30.25,NW,317,0.0,0.0,87,0.00,,,0.49,VWS V14.01,2014-01-12 03:59:00,
2014-01-11 20:04:00,48.2,44.8,30.26,NW,317,0.0,0.0,88,0.00,,,0.49,VWS V14.01,2014-01-12 04:04:00,
2014-01-11 20:09:00,48.0,44.6,30.26,NW,317,0.0,0.0,88,0.00,,,0.49,VWS V14.01,2014-01-12 04:09:00,
2014-01-11 20:14:00,48.0,44.9,30.26,NW,317,0.0,0.0,89,0.00,,,0.49,VWS V14.01,2014-01-12 04:14:00,
2014-01-11 20:19:00,48.2,45.1,30.27,NW,317,0.0,0.0,89,0.00,,,0.49,VWS V14.01,2014-01-12 04:19:00,
2014-01-11 20:24:00,48.3,45.2,30.27,NW,317,0.0,0.0,89,0.00,,,0.49,VWS V14.01,2014-01-12 04:24:00,
2014-01-11 20:29:00,48.5,45.7,30.27,NW,317,0.0,0.0,90,0.00,,,0.49,VWS V14.01,2014-01-12 04:29:00,
2014-01-11 20:34:00,48.8,46.0,30.28,NW,317,0.0,0.0,90,0.00,,,0.49,VWS V14.01,2014-01-12 04:34:00,
2014-01-11 20:39:00,48.6,45.8,30.28,NW,317,0.0,0.0,90,0.00,,,0.49,VWS V14.01,2014-01-12 04:39:00,
2014-01-11 20:44:00,48.6,45.7,30.27,NW,316,0.0,0.0,90,0.00,,,0.48,meteobridge,2014-01-12 04:44:00,
2014-01-11 20:49:00,48.3,45.5,30.28,NW,317,0.0,0.0,90,0.00,,OVC060,0.49,VWS V14.01,2014-01-12 04:49:00,
2014-01-11 20:54:00,48.0,45.2,30.28,NW,317,0.0,0.0,90,0.00,,OVC060,0.49,VWS V14.01,2014-01-12 04:54:00,
2014-01-11 20:59:00,47.7,44.6,30.28,NW,317,0.0,0.0,89,0.00,,OVC060,0.49,VWS V14.01,2014-01-12 04:59:00,
2014-01-11 21:01:00,47.6,44.5,30.28,NW,317,0.0,0.0,89,0.00,,OVC060,0.49,VWS V14.01,2014-01-12 05:01:00,
2014-01-11 21:06:00,47.1,44.0,30.28,NW,317,0.0,0.0,89,0.00,,OVC060,0.49,VWS V14.01,2014-01-12 05:06:00,
2014-01-11 21:11:00,46.5,43.4,30.28,NW,317,0.0,0.0,89,0.00,,OVC060,0.49,VWS V14.01,2014-01-12 05:11:00,
2014-01-11 21:16:00,46.2,43.4,30.29,NW,317,0.0,0.0,90,0.00,,OVC060,0.49,VWS V14.01,2014-01-12 05:16:00,
2014-01-11 21:21:00,45.8,43.0,30.29,NW,317,0.0,0.0,90,0.00,,OVC060,0.49,VWS V14.01,2014-01-12 05:21:00,
2014-01-11 21:26:00,45.7,43.0,30.28,NW,317,0.0,0.0,90,0.00,,,0.48,meteobridge,2014-01-12 05:26:00,
2014-01-11 21:31:00,45.5,43.0,30.29,NW,317,0.0,0.0,91,0.00,,OVC060,0.49,VWS V14.01,2014-01-12 05:31:00,
2014-01-11 21:36:00,45.1,42.3,30.29,NW,317,0.0,0.0,90,0.00,,OVC060,0.49,VWS V14.01,2014-01-12 05:36:00,
2014-01-11 21:41:00,44.9,42.4,30.30,NW,317,0.0,0.0,91,0.00,,,0.49,VWS V14.01,2014-01-12 05:41:00,
2014-01-11 21:46:00,44.6,42.1,30.30,NW,317,0.0,0.0,91,0.00,,,0.49,VWS V14.01,2014-01-12 05:46:00,
2014-01-11 21:51:00,44.3,41.8,30.30,NW,317,0.0,0.0,91,0.00,,,0.49,VWS V14.01,2014-01-12 05:51:00,
2014-01-11 21:56:00,44.3,41.8,30.30,NW,317,0.0,0.0,91,0.00,,,0.49,VWS V14.01,2014-01-12 05:56:00,
2014-01-11 22:01:00,44.2,41.7,30.30,NW,317,0.0,0.0,91,0.00,,,0.49,VWS V14.01,2014-01-12 06:01:00,
2014-01-11 22:03:00,44.2,41.7,30.30,NW,317,0.0,0.0,91,0.00,,,0.49,VWS V14.01,2014-01-12 06:03:00,
2014-01-11 22:08:00,44.2,42.1,30.29,NW,317,0.0,0.0,92,0.00,,,0.48,meteobridge,2014-01-12 06:08:00,
2014-01-11 22:13:00,44.2,42.0,30.31,NW,317,0.0,0.0,92,0.00,,,0.49,VWS V14.01,2014-01-12 06:13:00,
2014-01-11 22:18:00,44.1,41.9,30.31,NW,317,0.0,0.0,92,0.00,,,0.49,VWS V14.01,2014-01-12 06:18:00,
2014-01-11 22:23:00,44.2,42.0,30.31,NW,317,0.0,0.0,92,0.00,,,0.49,VWS V14.01,2014-01-12 06:23:00,
2014-01-11 22:28:00,44.2,42.0,30.31,NW,317,0.0,0.0,92,0.00,,,0.49,VWS V14.01,2014-01-12 06:28:00,
2014-01-11 22:33:00,44.2,42.0,30.31,NW,317,0.0,0.0,92,0.00,,,0.49,VWS V14.01,2014-01-12 06:33:00,
2014-01-11 22:38:00,44.2,42.0,30.31,NW,317,0.0,0.0,92,0.00,,,0.49,VWS V14.01,2014-01-12 06:38:00,
2014-01-11 22:43:00,44.2,42.3,30.31,NW,317,0.0,0.0,93,0.00,,,0.49,VWS V14.01,2014-01-12 06:43:00,
2014-01-11 22:48:00,44.3,42.4,30.31,NW,317,0.0,0.0,93,0.00,,,0.49,VWS V14.01,2014-01-12 06:48:00,
2014-01-11 22:53:00,44.5,42.6,30.31,NW,317,0.0,0.0,93,0.00,,,0.49,VWS V14.01,2014-01-12 06:53:00,
2014-01-11 22:58:00,44.5,42.6,30.31,NW,317,0.0,0.0,93,0.00,,,0.49,VWS V14.01,2014-01-12 06:58:00,
2014-01-11 23:03:00,44.5,42.6,30.31,NW,317,0.0,0.0,93,0.00,,,0.49,VWS V14.01,2014-01-12 07:03:00,
2014-01-11 23:08:00,44.3,42.4,30.31,NW,317,0.0,0.0,93,0.00,,,0.49,VWS V14.01,2014-01-12 07:08:00,
2014-01-11 23:13:00,44.2,42.3,30.32,NW,317,0.0,0.0,93,0.00,,,0.49,VWS V14.01,2014-01-12 07:13:00,
2014-01-11 23:18:00,44.1,42.2,30.32,NW,317,0.0,0.0,93,0.00,,,0.49,VWS V14.01,2014-01-12 07:18:00,
2014-01-11 23:23:00,44.2,42.3,30.31,NW,317,0.0,0.0,93,0.00,,,0.49,VWS V14.01,2014-01-12 07:23:00,
2014-01-11 23:28:00,44.2,42.3,30.31,NW,317,0.0,0.0,93,0.00,,,0.49,VWS V14.01,2014-01-12 07:28:00,
2014-01-11 23:33:00,44.2,42.3,30.30,NW,317,0.0,0.0,93,0.00,,,0.48,meteobridge,2014-01-12 07:33:00,
2014-01-11 23:38:00,44.1,42.2,30.31,NW,317,0.0,0.0,93,0.00,,,0.49,VWS V14.01,2014-01-12 07:38:00,
2014-01-11 23:43:00,44.1,42.2,30.31,NW,317,0.0,0.0,93,0.00,,OVC026,0.49,VWS V14.01,2014-01-12 07:43:00,
2014-01-11 23:48:00,44.1,42.2,30.31,NW,317,0.0,0.0,93,0.00,,OVC026,0.49,VWS V14.01,2014-01-12 07:48:00,
2014-01-11 23:53:00,43.9,42.3,30.32,NW,317,0.0,0.0,94,0.00,,OVC026,0.49,VWS V14.01,2014-01-12 07:53:00,
2014-01-11 23:58:00,44.1,42.5,30.31,NW,317,0.0,0.0,94,0.00,,OVC026,0.49,VWS V14.01,2014-01-12 07:58:00,